Time;durP1;ratioP1;P1;durP2;ratioP2;P2;SDS_P1;SDS_P2;PMS_P1;PMS_P2;Temp;Humidity;BMP_temperature;BMP_pressure;BME280_temperature;BME280_humidity;BME280_pressure;Samples;Min_cycle;Max_cycle;Signal;HPM_P1;HPM_P2
2022/03/14 00:00:47;;;;;;;18.10;12.70;;;10.80;61.90;;;;;;5035919;28;20290;-73
2022/03/14 00:03:14;;;;;;;18.40;13.33;;;10.80;62.20;;;;;;5053691;28;20311;-73
2022/03/14 00:05:40;;;;;;;18.40;13.07;;;10.80;62.50;;;;;;5053571;28;20425;-73
2022/03/14 00:08:07;;;;;;;16.77;12.60;;;10.80;62.90;;;;;;5035236;28;21156;-73
2022/03/14 00:10:34;;;;;;;17.93;13.00;;;10.70;63.10;;;;;;5035540;28;20287;-73
2022/03/14 00:13:01;;;;;;;17.87;12.80;;;10.70;63.20;;;;;;5035176;28;20303;-73
2022/03/14 00:15:33;;;;;;;17.03;13.17;;;10.70;63.70;;;;;;5019072;28;20321;-73
2022/03/14 00:18:01;;;;;;;17.13;12.83;;;10.60;64.00;;;;;;5053133;28;20283;-73
2022/03/14 00:20:28;;;;;;;16.67;13.33;;;10.60;64.40;;;;;;5053560;28;20280;-73
2022/03/14 00:22:54;;;;;;;21.33;13.87;;;10.60;64.80;;;;;;5034984;28;20783;-73
2022/03/14 00:25:19;;;;;;;16.83;13.93;;;10.50;65.30;;;;;;5052883;28;20287;-73
2022/03/14 00:27:45;;;;;;;16.47;12.60;;;10.60;65.80;;;;;;5053253;28;20088;-73
2022/03/14 00:30:12;;;;;;;16.07;13.57;;;10.50;66.20;;;;;;5052397;28;20068;-73
2022/03/14 00:32:39;;;;;;;20.60;13.70;;;10.50;66.60;;;;;;5034957;28;20091;-73
2022/03/14 00:35:07;;;;;;;18.93;13.03;;;10.50;67.10;;;;;;5052180;28;20295;-73
2022/03/14 00:37:33;;;;;;;15.07;12.57;;;10.40;67.70;;;;;;5052832;28;20303;-73
2022/03/14 00:40:00;;;;;;;19.17;14.30;;;10.40;68.20;;;;;;5052783;28;20295;-74
2022/03/14 00:42:26;;;;;;;17.50;13.60;;;10.40;68.40;;;;;;5052876;28;20808;-74
2022/03/14 00:44:52;;;;;;;17.83;13.87;;;10.40;68.90;;;;;;5052811;28;20319;-75
2022/03/14 00:47:19;;;;;;;17.90;14.57;;;10.30;69.30;;;;;;5053044;28;20055;-74
2022/03/14 00:49:46;;;;;;;15.83;12.80;;;10.30;69.90;;;;;;5052987;28;20294;-73
2022/03/14 00:52:12;;;;;;;18.47;13.87;;;10.30;70.00;;;;;;5034497;28;20374;-73
2022/03/14 00:54:38;;;;;;;17.37;14.03;;;10.30;70.30;;;;;;5035284;28;20283;-73
2022/03/14 00:57:04;;;;;;;18.83;13.77;;;10.30;70.60;;;;;;5052557;28;20275;-74
2022/03/14 00:59:31;;;;;;;17.17;12.87;;;10.30;70.70;;;;;;5018928;28;20095;-73
2022/03/14 01:01:57;;;;;;;16.83;13.73;;;10.30;71.20;;;;;;5034708;28;20292;-74
2022/03/14 01:04:22;;;;;;;16.60;13.83;;;10.30;72.20;;;;;;5052650;28;20291;-74
2022/03/14 01:06:49;;;;;;;16.77;12.57;;;10.30;72.30;;;;;;5035158;28;20333;-73
2022/03/14 01:09:14;;;;;;;17.37;13.90;;;10.30;73.00;;;;;;5034901;28;20079;-74
2022/03/14 01:11:44;;;;;;;16.90;13.40;;;10.30;73.20;;;;;;5034629;28;20350;-73
2022/03/14 01:14:11;;;;;;;18.47;13.87;;;10.30;73.70;;;;;;5034599;28;20040;-74
2022/03/14 01:16:37;;;;;;;17.87;13.37;;;10.30;74.00;;;;;;5052705;28;20299;-74
2022/03/14 01:19:04;;;;;;;16.53;13.67;;;10.30;74.40;;;;;;5052718;28;20367;-73
2022/03/14 01:21:30;;;;;;;15.73;12.23;;;10.30;74.80;;;;;;5054723;28;20284;-74
2022/03/14 01:23:59;;;;;;;17.43;12.73;;;10.30;75.20;;;;;;5022303;28;20769;-75
2022/03/14 01:26:25;;;;;;;18.23;13.50;;;10.30;76.10;;;;;;5039048;28;20052;-74
2022/03/14 01:28:51;;;;;;;16.77;13.37;;;10.30;76.60;;;;;;5022528;28;20294;-74
2022/03/14 01:31:17;;;;;;;16.10;13.40;;;10.30;77.30;;;;;;5056267;28;20102;-74
2022/03/14 01:33:43;;;;;;;16.07;13.83;;;10.20;78.00;;;;;;5056537;28;20052;-74
2022/03/14 01:36:09;;;;;;;17.50;13.50;;;10.20;78.40;;;;;;5038452;28;20287;-74
2022/03/14 01:38:34;;;;;;;16.07;12.80;;;10.20;78.70;;;;;;5038926;28;20088;-74
2022/03/14 01:41:00;;;;;;;20.17;14.03;;;10.20;79.50;;;;;;5056153;28;20049;-74
2022/03/14 01:43:26;;;;;;;20.57;13.73;;;10.20;79.90;;;;;;5038483;28;20045;-74
2022/03/14 01:45:58;;;;;;;17.00;13.03;;;10.20;80.50;;;;;;5056264;28;20049;-74
2022/03/14 01:48:25;;;;;;;15.23;12.63;;;10.20;81.10;;;;;;5038399;28;20080;-74
2022/03/14 01:50:51;;;;;;;15.03;11.77;;;10.20;81.30;;;;;;5056170;28;20289;-73
2022/03/14 01:53:19;;;;;;;14.80;12.30;;;10.20;82.00;;;;;;5055828;28;20619;-74
2022/03/14 01:55:49;;;;;;;18.83;13.33;;;10.20;82.80;;;;;;5038495;28;20767;-74
2022/03/14 01:58:16;;;;;;;15.90;13.07;;;10.30;83.20;;;;;;5037972;28;20319;-74
2022/03/14 02:00:43;;;;;;;23.27;12.97;;;10.20;83.20;;;;;;5038500;28;20287;-74
2022/03/14 02:03:10;;;;;;;15.27;12.43;;;10.20;84.10;;;;;;5037841;28;20385;-74
2022/03/14 02:05:37;;;;;;;16.33;12.13;;;10.20;85.00;;;;;;5038125;28;20275;-74
2022/03/14 02:08:06;;;;;;;16.40;12.37;;;10.20;85.30;;;;;;5055672;28;20333;-75
2022/03/14 02:10:34;;;;;;;16.07;12.80;;;10.20;86.50;;;;;;5055875;28;20290;-74
2022/03/14 02:13:07;;;;;;;17.13;11.80;;;10.20;86.60;;;;;;5054823;28;20287;-74
2022/03/14 02:15:33;;;;;;;13.80;11.60;;;10.20;88.00;;;;;;5036979;28;20287;-74
2022/03/14 02:18:00;;;;;;;14.67;11.10;;;10.20;88.10;;;;;;5036678;28;20620;-74
2022/03/14 02:20:26;;;;;;;14.83;12.13;;;10.20;88.90;;;;;;5036592;28;20609;-74
2022/03/14 02:22:51;;;;;;;14.60;12.23;;;10.30;89.40;;;;;;5054673;28;20365;-74
2022/03/14 02:25:17;;;;;;;13.57;11.53;;;10.20;90.10;;;;;;5054093;28;20647;-74
2022/03/14 02:27:43;;;;;;;16.67;11.00;;;10.20;90.30;;;;;;5054262;28;20076;-74
2022/03/14 02:30:10;;;;;;;15.03;10.57;;;10.20;90.70;;;;;;5054037;28;20378;-72
2022/03/14 02:32:41;;;;;;;14.20;10.90;;;10.20;91.00;;;;;;5054048;28;20406;-72
2022/03/14 02:35:08;;;;;;;14.07;10.73;;;10.20;91.30;;;;;;5054095;28;20665;-72
2022/03/14 02:37:34;;;;;;;13.63;10.20;;;10.20;91.70;;;;;;5054180;28;20371;-72
2022/03/14 02:40:00;;;;;;;13.83;9.83;;;10.20;92.00;;;;;;5054340;28;20365;-72
2022/03/14 02:42:26;;;;;;;12.97;9.70;;;10.30;92.30;;;;;;5053785;28;21223;-72
2022/03/14 02:44:52;;;;;;;11.80;9.20;;;10.20;92.30;;;;;;5019584;28;20406;-73
2022/03/14 02:47:19;;;;;;;13.20;10.57;;;10.30;92.90;;;;;;5053843;28;20067;-73
2022/03/14 02:49:45;;;;;;;12.50;9.57;;;10.30;93.00;;;;;;5019936;28;20044;-73
2022/03/14 02:52:11;;;;;;;13.40;9.57;;;10.20;93.30;;;;;;5053620;28;20287;-73
2022/03/14 02:54:37;;;;;;;10.90;8.80;;;10.20;93.60;;;;;;5053932;28;20280;-73
2022/03/14 02:57:05;;;;;;;11.43;8.80;;;10.20;93.80;;;;;;5036216;28;20135;-73
2022/03/14 02:59:32;;;;;;;12.13;8.23;;;10.30;94.10;;;;;;5053650;28;20274;-73
2022/03/14 03:01:58;;;;;;;11.10;7.90;;;10.30;94.10;;;;;;5036037;28;20353;-73
2022/03/14 03:04:24;;;;;;;10.00;7.70;;;10.30;94.50;;;;;;5035294;28;20779;-73
2022/03/14 03:06:50;;;;;;;10.10;8.17;;;10.30;94.90;;;;;;5036398;28;20056;-74
2022/03/14 03:09:16;;;;;;;9.00;7.40;;;10.30;95.10;;;;;;5035637;28;20376;-74
2022/03/14 03:11:42;;;;;;;10.32;7.22;;;10.30;95.40;;;;;;5014481;28;1121886;-74
2022/03/14 03:14:09;;;;;;;9.53;7.30;;;10.30;95.80;;;;;;5054325;28;20496;-74
2022/03/14 03:16:35;;;;;;;9.67;7.00;;;10.30;95.80;;;;;;5054376;28;20500;-74
2022/03/14 03:19:01;;;;;;;10.17;7.17;;;10.30;96.00;;;;;;5036904;28;20288;-74
2022/03/14 03:21:28;;;;;;;9.30;7.00;;;10.30;96.10;;;;;;5036447;28;20298;-74
2022/03/14 03:23:53;;;;;;;8.30;6.60;;;10.30;96.40;;;;;;5036381;28;20205;-74
2022/03/14 03:26:20;;;;;;;8.70;6.57;;;10.30;96.50;;;;;;5019849;28;20290;-74
2022/03/14 03:28:45;;;;;;;8.47;6.30;;;10.30;96.80;;;;;;5036802;28;20092;-75
2022/03/14 03:31:17;;;;;;;8.00;6.20;;;10.30;97.00;;;;;;5054325;28;20322;-75
2022/03/14 03:33:43;;;;;;;7.77;6.03;;;10.30;97.20;;;;;;5054355;28;20045;-74
2022/03/14 03:36:09;;;;;;;9.80;5.60;;;10.30;97.30;;;;;;5054197;28;20279;-74
2022/03/14 03:38:35;;;;;;;10.00;6.10;;;10.40;97.40;;;;;;5036239;28;20304;-75
2022/03/14 03:41:01;;;;;;;8.57;6.30;;;10.40;97.70;;;;;;5036659;28;20623;-74
2022/03/14 03:43:27;;;;;;;8.50;6.00;;;10.30;97.70;;;;;;5052895;28;20314;-74
2022/03/14 03:45:54;;;;;;;8.50;5.97;;;10.30;97.90;;;;;;5036451;28;20049;-74
2022/03/14 03:48:20;;;;;;;9.43;5.97;;;10.30;97.80;;;;;;5036096;28;20060;-74
2022/03/14 03:50:46;;;;;;;11.17;6.10;;;10.30;98.00;;;;;;5053922;28;20295;-74
2022/03/14 03:53:12;;;;;;;6.83;5.13;;;10.30;98.20;;;;;;5053818;28;20283;-74
2022/03/14 03:55:38;;;;;;;7.07;4.93;;;10.30;98.20;;;;;;5053578;28;20428;-74
2022/03/14 03:58:05;;;;;;;6.57;4.63;;;10.30;98.50;;;;;;5053771;28;20060;-74
2022/03/14 04:00:30;;;;;;;7.43;4.70;;;10.30;98.60;;;;;;5035794;28;20298;-74
2022/03/14 04:02:57;;;;;;;6.47;4.40;;;10.30;98.70;;;;;;5053617;28;20303;-74
2022/03/14 04:05:23;;;;;;;6.07;4.10;;;10.30;98.70;;;;;;5035772;28;20088;-75
2022/03/14 04:07:49;;;;;;;6.47;4.23;;;10.30;98.80;;;;;;5053580;28;20763;-74
2022/03/14 04:10:15;;;;;;;6.60;4.47;;;10.30;98.80;;;;;;5035820;28;20375;-74
2022/03/14 04:12:43;;;;;;;7.53;4.70;;;10.30;99.10;;;;;;5052868;28;20061;-74
2022/03/14 04:15:09;;;;;;;6.50;4.73;;;10.30;99.20;;;;;;5035975;28;20287;-74
2022/03/14 04:17:36;;;;;;;6.47;4.27;;;10.30;99.20;;;;;;5053148;28;20287;-74
2022/03/14 04:20:07;;;;;;;5.60;3.87;;;10.30;99.70;;;;;;5053379;28;20271;-74
2022/03/14 04:22:36;;;;;;;6.47;4.27;;;10.20;99.60;;;;;;5035677;28;20331;-74
2022/03/14 04:25:03;;;;;;;7.50;4.50;;;10.20;99.60;;;;;;5053433;28;20373;-74
2022/03/14 04:27:29;;;;;;;6.43;4.53;;;10.20;99.60;;;;;;5035460;28;20279;-74
2022/03/14 04:29:56;;;;;;;6.53;4.30;;;10.20;99.80;;;;;;5035690;28;20288;-74
2022/03/14 04:32:23;;;;;;;6.33;4.20;;;10.20;99.90;;;;;;5053127;28;20462;-75
2022/03/14 04:34:49;;;;;;;6.27;4.00;;;10.20;99.90;;;;;;5053541;28;20276;-74
2022/03/14 04:37:15;;;;;;;8.50;4.13;;;10.20;99.90;;;;;;5035792;28;20296;-74
2022/03/14 04:39:42;;;;;;;6.30;4.57;;;10.20;99.90;;;;;;5052811;28;20279;-74
2022/03/14 04:42:09;;;;;;;6.00;3.90;;;10.20;99.90;;;;;;5035331;28;20148;-74
2022/03/14 04:44:35;;;;;;;5.90;3.97;;;10.20;99.90;;;;;;5052696;28;20298;-74
2022/03/14 04:47:02;;;;;;;5.87;3.80;;;10.20;99.90;;;;;;5052923;28;20311;-74
2022/03/14 04:49:28;;;;;;;6.57;4.17;;;10.30;99.90;;;;;;5034214;28;20279;-75
2022/03/14 04:51:55;;;;;;;7.53;4.30;;;10.20;99.90;;;;;;5052500;28;20290;-74
2022/03/14 04:54:24;;;;;;;5.77;3.73;;;10.20;99.90;;;;;;5052850;28;20628;-74
2022/03/14 04:56:50;;;;;;;6.33;3.80;;;10.30;99.90;;;;;;5035402;28;20430;-74
2022/03/14 04:59:16;;;;;;;7.30;4.00;;;10.30;99.90;;;;;;5034721;28;20283;-74
2022/03/14 05:01:41;;;;;;;5.23;3.87;;;10.20;99.90;;;;;;5052246;28;20276;-74
2022/03/14 05:04:07;;;;;;;5.77;3.90;;;10.20;99.90;;;;;;5052231;28;20296;-74
2022/03/14 05:06:33;;;;;;;6.00;3.83;;;10.20;99.90;;;;;;5017887;28;20053;-74
2022/03/14 05:09:00;;;;;;;5.97;3.77;;;10.20;99.90;;;;;;5052800;28;20378;-74
2022/03/14 05:11:27;;;;;;;5.10;3.80;;;10.20;99.90;;;;;;5052160;28;20298;-74
2022/03/14 05:13:53;;;;;;;4.77;3.10;;;10.20;99.90;;;;;;5053071;28;20318;-72
2022/03/14 05:16:19;;;;;;;5.77;3.87;;;10.20;99.90;;;;;;5018605;28;20297;-72
2022/03/14 05:18:46;;;;;;;5.90;3.83;;;10.20;99.90;;;;;;5018289;28;20402;-72
2022/03/14 05:21:13;;;;;;;5.43;3.37;;;10.20;99.90;;;;;;5052625;28;20710;-72
2022/03/14 05:23:39;;;;;;;4.50;2.87;;;10.20;99.90;;;;;;5052259;28;20343;-73
2022/03/14 05:26:05;;;;;;;5.17;3.50;;;10.20;99.90;;;;;;5035013;28;20319;-73
2022/03/14 05:28:31;;;;;;;4.97;3.10;;;10.20;99.90;;;;;;5052209;28;20279;-74
2022/03/14 05:30:57;;;;;;;5.33;3.23;;;10.20;99.90;;;;;;5052560;28;20276;-74
2022/03/14 05:33:23;;;;;;;4.93;3.00;;;10.20;99.90;;;;;;5052218;28;20084;-74
2022/03/14 05:35:50;;;;;;;5.47;3.30;;;10.20;99.90;;;;;;5052190;28;20326;-74
2022/03/14 05:38:16;;;;;;;5.40;3.13;;;10.20;99.90;;;;;;5052376;28;20275;-74
2022/03/14 05:40:42;;;;;;;4.27;2.53;;;10.10;99.90;;;;;;5034501;28;20754;-74
2022/03/14 05:43:10;;;;;;;4.97;2.67;;;10.10;99.90;;;;;;5052316;28;20048;-74
2022/03/14 05:45:36;;;;;;;4.23;2.80;;;10.20;99.90;;;;;;5052032;28;20333;-74
2022/03/14 05:48:03;;;;;;;4.93;2.90;;;10.20;99.90;;;;;;5052245;28;20295;-74
2022/03/14 05:50:29;;;;;;;4.70;2.83;;;10.20;99.90;;;;;;5018238;28;20284;-74
2022/03/14 05:52:55;;;;;;;4.30;2.80;;;10.20;99.90;;;;;;5051922;28;20298;-74
2022/03/14 05:55:21;;;;;;;4.73;2.90;;;10.20;99.90;;;;;;5052234;28;20279;-74
2022/03/14 05:57:47;;;;;;;4.63;2.83;;;10.20;99.90;;;;;;5051951;28;20291;-74
2022/03/14 06:00:17;;;;;;;6.70;3.20;;;10.20;99.90;;;;;;5052222;28;20283;-73
2022/03/14 06:02:48;;;;;;;4.80;2.87;;;10.20;99.90;;;;;;5034169;28;20072;-73
2022/03/14 06:05:14;;;;;;;5.27;2.87;;;10.20;99.90;;;;;;5052239;28;20362;-73
2022/03/14 06:07:41;;;;;;;5.13;2.67;;;10.20;99.90;;;;;;5053958;28;20297;-73
2022/03/14 06:10:09;;;;;;;4.57;2.80;;;10.10;99.90;;;;;;5055836;28;20337;-73
2022/03/14 06:12:35;;;;;;;4.80;2.87;;;10.20;99.90;;;;;;5037300;28;20648;-74
2022/03/14 06:15:03;;;;;;;4.43;2.80;;;10.10;99.90;;;;;;5055733;28;20306;-73
2022/03/14 06:17:28;;;;;;;4.90;2.97;;;10.20;99.90;;;;;;5038160;28;20627;-73
2022/03/14 06:19:54;;;;;;;4.50;3.00;;;10.20;99.90;;;;;;5037858;28;20284;-73
2022/03/14 06:22:22;;;;;;;5.20;3.10;;;10.20;99.90;;;;;;5055647;28;20056;-73
2022/03/14 06:24:49;;;;;;;4.83;2.73;;;10.20;99.90;;;;;;5055631;28;20041;-73
2022/03/14 06:27:19;;;;;;;5.30;3.27;;;10.20;99.90;;;;;;5055511;28;20360;-73
2022/03/14 06:29:45;;;;;;;4.60;2.93;;;10.20;99.90;;;;;;5054753;28;20362;-73
2022/03/14 06:32:11;;;;;;;4.60;2.40;;;10.20;99.90;;;;;;5037029;28;20390;-73
2022/03/14 06:34:38;;;;;;;4.80;3.10;;;10.20;99.90;;;;;;5055252;28;20049;-74
2022/03/14 06:37:06;;;;;;;4.80;2.83;;;10.20;99.90;;;;;;5055093;28;20486;-73
2022/03/14 06:39:33;;;;;;;5.43;2.83;;;10.20;99.90;;;;;;5055035;28;20283;-73
2022/03/14 06:42:01;;;;;;;4.53;3.03;;;10.20;99.90;;;;;;5037125;28;20295;-73
2022/03/14 06:44:28;;;;;;;5.17;2.90;;;10.20;99.90;;;;;;5055010;28;20300;-73
2022/03/14 06:46:55;;;;;;;6.73;3.10;;;10.20;99.90;;;;;;5054886;28;20279;-73
2022/03/14 06:49:21;;;;;;;5.70;2.80;;;10.20;99.90;;;;;;5055070;28;20279;-73
2022/03/14 06:51:47;;;;;;;5.63;3.37;;;10.20;99.90;;;;;;5054602;28;20816;-73
2022/03/14 06:54:14;;;;;;;4.50;2.90;;;10.20;99.90;;;;;;5054964;28;20279;-73
2022/03/14 06:56:41;;;;;;;5.13;3.07;;;10.30;99.90;;;;;;5054712;28;20287;-73
2022/03/14 06:59:07;;;;;;;5.13;3.57;;;10.30;99.90;;;;;;5037488;28;20287;-73
2022/03/14 07:01:34;;;;;;;5.27;3.10;;;10.30;99.90;;;;;;5055013;28;20755;-73
2022/03/14 07:03:59;;;;;;;5.23;3.37;;;10.30;99.90;;;;;;5036918;28;20051;-73
2022/03/14 07:06:25;;;;;;;5.27;3.10;;;10.30;99.90;;;;;;5037214;28;20279;-73
2022/03/14 07:08:51;;;;;;;5.77;3.47;;;10.30;99.90;;;;;;5054556;28;20401;-73
2022/03/14 07:11:17;;;;;;;4.50;3.03;;;10.30;99.90;;;;;;5054755;28;20053;-73
2022/03/14 07:13:42;;;;;;;4.87;3.10;;;10.30;99.90;;;;;;5054502;28;20564;-74
2022/03/14 07:16:08;;;;;;;7.13;3.30;;;10.30;99.90;;;;;;5036861;28;20088;-74
2022/03/14 07:18:34;;;;;;;4.93;3.17;;;10.30;99.90;;;;;;5053505;28;20132;-74
2022/03/14 07:21:00;;;;;;;7.40;3.03;;;10.30;99.90;;;;;;5020137;28;20053;-74
2022/03/14 07:23:26;;;;;;;5.10;3.20;;;10.30;99.90;;;;;;5054527;28;20087;-74
2022/03/14 07:25:51;;;;;;;5.30;3.23;;;10.30;99.90;;;;;;5036592;28;20084;-74
2022/03/14 07:28:18;;;;;;;5.63;3.40;;;10.30;99.90;;;;;;5020443;28;20128;-74
2022/03/14 07:30:45;;;;;;;5.03;3.50;;;10.30;99.90;;;;;;5036108;28;20057;-75
2022/03/14 07:33:11;;;;;;;5.60;3.90;;;10.30;99.90;;;;;;5036677;28;20295;-74
2022/03/14 07:35:37;;;;;;;5.80;3.90;;;10.30;99.90;;;;;;5054284;28;20357;-74
2022/03/14 07:38:04;;;;;;;6.60;3.53;;;10.30;99.90;;;;;;5053882;28;20739;-74
2022/03/14 07:40:31;;;;;;;5.40;3.33;;;10.40;99.90;;;;;;5036409;28;20333;-73
2022/03/14 07:42:58;;;;;;;6.33;3.90;;;10.40;99.90;;;;;;5035933;28;20287;-75
2022/03/14 07:45:25;;;;;;;6.80;4.27;;;10.40;99.90;;;;;;5054056;28;20271;-74
2022/03/14 07:47:53;;;;;;;6.20;4.40;;;10.40;99.90;;;;;;5035999;28;20283;-74
2022/03/14 07:50:19;;;;;;;6.20;4.10;;;10.40;99.90;;;;;;5019963;28;20609;-73
2022/03/14 07:52:47;;;;;;;6.10;4.30;;;10.40;99.90;;;;;;5053923;28;20437;-75
2022/03/14 07:55:13;;;;;;;7.30;4.70;;;10.40;99.90;;;;;;5054251;28;20129;-76
2022/03/14 07:57:40;;;;;;;6.53;5.17;;;10.40;99.90;;;;;;5053821;28;20283;-75
2022/03/14 08:00:10;;;;;;;7.13;5.37;;;10.40;99.90;;;;;;5035921;28;20291;-77
2022/03/14 08:02:37;;;;;;;6.47;5.20;;;10.40;99.90;;;;;;5020319;28;20290;-76
2022/03/14 08:05:04;;;;;;;7.10;5.40;;;10.50;99.90;;;;;;5053355;28;20303;-77
2022/03/14 08:07:30;;;;;;;7.70;5.57;;;10.50;99.90;;;;;;5019929;28;20302;-77
2022/03/14 08:09:56;;;;;;;7.93;6.03;;;10.50;99.90;;;;;;5035731;28;20274;-77
2022/03/14 08:12:22;;;;;;;9.77;7.07;;;10.50;99.90;;;;;;5035551;28;20379;-77
2022/03/14 08:14:51;;;;;;;8.23;7.17;;;10.50;99.90;;;;;;5053455;28;20099;-78
2022/03/14 08:17:18;;;;;;;9.30;7.10;;;10.50;99.90;;;;;;5035371;28;20315;-77
2022/03/14 08:19:44;;;;;;;10.13;7.77;;;10.50;99.90;;;;;;5019240;28;20283;-77
2022/03/14 08:22:10;;;;;;;8.80;7.63;;;10.50;99.90;;;;;;5053178;28;20283;-77
2022/03/14 08:24:36;;;;;;;10.33;8.63;;;10.50;99.90;;;;;;5054941;28;20375;-77
2022/03/14 08:27:02;;;;;;;12.63;11.33;;;10.50;99.90;;;;;;5052991;28;20132;-78
2022/03/14 08:29:28;;;;;;;12.80;11.50;;;10.50;99.90;;;;;;5035682;28;20367;-77
2022/03/14 08:31:57;;;;;;;16.83;15.23;;;10.50;99.90;;;;;;5035165;28;20088;-78
2022/03/14 08:34:23;;;;;;;16.20;14.60;;;10.50;99.90;;;;;;5035644;28;20290;-77
2022/03/14 08:36:48;;;;;;;17.83;16.03;;;10.50;99.90;;;;;;5019098;28;20372;-75
2022/03/14 08:39:14;;;;;;;17.70;15.83;;;10.50;99.90;;;;;;5035230;28;20056;-75
2022/03/14 08:41:40;;;;;;;19.07;17.20;;;10.50;99.90;;;;;;5053194;28;20371;-75
2022/03/14 08:44:07;;;;;;;19.70;17.70;;;10.50;99.90;;;;;;5052654;28;20048;-76
2022/03/14 08:46:35;;;;;;;19.20;17.20;;;10.50;99.90;;;;;;5052940;28;20718;-75
2022/03/14 08:49:01;;;;;;;18.67;16.80;;;10.40;99.90;;;;;;5034982;28;20283;-76
2022/03/14 08:51:27;;;;;;;17.63;15.83;;;10.40;99.90;;;;;;5052922;28;20676;-74
2022/03/14 08:53:54;;;;;;;19.30;17.40;;;10.30;99.90;;;;;;5034604;28;20280;-76
2022/03/14 08:56:20;;;;;;;18.33;16.53;;;10.30;99.90;;;;;;5052924;28;20280;-73
2022/03/14 08:58:46;;;;;;;21.10;19.00;;;10.30;99.90;;;;;;5018822;28;20287;-73
2022/03/14 09:01:12;;;;;;;19.87;17.87;;;10.30;99.90;;;;;;5052539;28;20750;-74
2022/03/14 09:03:38;;;;;;;19.43;17.43;;;10.30;99.90;;;;;;5052701;28;20126;-75
2022/03/14 09:06:05;;;;;;;20.67;18.53;;;10.30;99.90;;;;;;5052311;28;20775;-71
2022/03/14 09:08:31;;;;;;;22.00;19.70;;;10.30;99.90;;;;;;5053102;28;20279;-71
2022/03/14 09:11:00;;;;;;;25.53;20.30;;;10.20;99.90;;;;;;5034385;28;20775;-76
2022/03/14 09:13:27;;;;;;;23.43;20.90;;;10.20;99.90;;;;;;5018171;28;20774;-75
2022/03/14 09:15:54;;;;;;;23.10;19.73;;;10.20;99.90;;;;;;5035063;28;20751;-74
2022/03/14 09:18:20;;;;;;;25.73;20.60;;;10.20;99.90;;;;;;5034592;28;20275;-75
2022/03/14 09:20:49;;;;;;;25.40;20.77;;;10.20;99.90;;;;;;5052740;28;20276;-75
2022/03/14 09:23:20;;;;;;;25.43;21.27;;;10.10;99.90;;;;;;5034435;28;20291;-75
2022/03/14 09:25:47;;;;;;;26.03;21.00;;;10.10;99.90;;;;;;5035694;28;20357;-74
2022/03/14 09:28:13;;;;;;;21.87;18.60;;;10.10;99.90;;;;;;5052330;28;20822;-72
2022/03/14 09:30:39;;;;;;;24.47;19.37;;;10.20;99.90;;;;;;5052649;28;20627;-73
2022/03/14 09:33:05;;;;;;;22.77;19.20;;;10.20;99.90;;;;;;5052498;28;20364;-75
2022/03/14 09:35:31;;;;;;;23.53;18.40;;;10.20;99.90;;;;;;5018793;28;20763;-73
2022/03/14 09:37:57;;;;;;;23.47;18.20;;;10.20;99.90;;;;;;5034868;28;20049;-74
2022/03/14 09:40:23;;;;;;;21.10;17.00;;;10.30;99.90;;;;;;5034499;28;20405;-76
2022/03/14 09:42:53;;;;;;;22.07;16.73;;;10.30;99.90;;;;;;5020765;28;20045;-81
2022/03/14 09:45:20;;;;;;;20.30;15.93;;;10.30;99.90;;;;;;5022083;28;21238;-85
2022/03/14 09:47:50;;;;;;;19.37;13.47;;;10.40;99.90;;;;;;5022346;28;20279;-83
2022/03/14 09:50:38;;;;;;;18.07;13.10;;;10.40;99.90;;;;;;5056075;28;20272;-77
2022/03/14 09:53:06;;;;;;;19.77;13.70;;;10.40;99.90;;;;;;5038285;28;20279;-76
2022/03/14 09:55:35;;;;;;;28.07;13.57;;;10.40;99.90;;;;;;5056431;28;20348;-77
2022/03/14 09:58:02;;;;;;;18.97;11.33;;;10.50;99.90;;;;;;5038635;28;20725;-81
2022/03/14 10:00:28;;;;;;;23.03;12.63;;;10.50;99.90;;;;;;5042612;28;20287;-88
2022/03/14 10:02:54;;;;;;;21.60;11.60;;;10.60;99.90;;;;;;5030997;28;20296;-87
2022/03/14 10:05:20;;;;;;;22.17;12.23;;;10.60;99.90;;;;;;5049008;28;20287;-84
2022/03/14 10:07:46;;;;;;;20.00;11.40;;;10.60;99.90;;;;;;5029033;28;20284;-86
2022/03/14 10:10:14;;;;;;;18.67;10.17;;;10.60;99.90;;;;;;5055847;28;20052;-83
2022/03/14 10:12:42;;;;;;;16.80;9.47;;;10.70;99.90;;;;;;5055920;28;20142;-85
2022/03/14 10:15:10;;;;;;;16.70;8.67;;;10.70;99.90;;;;;;5055630;28;20288;-83
2022/03/14 10:17:35;;;;;;;15.30;7.67;;;10.80;99.90;;;;;;5055940;28;20279;-86
2022/03/14 10:20:04;;;;;;;18.27;8.23;;;10.80;99.90;;;;;;5038300;28;20652;-89
2022/03/14 10:22:38;;;;;;;16.87;7.87;;;10.90;99.90;;;;;;5005153;28;20075;-78
2022/03/14 10:25:09;;;;;;;14.20;6.53;;;10.90;99.90;;;;;;5056786;28;20436;-79
2022/03/14 10:27:36;;;;;;;13.13;5.83;;;10.90;99.90;;;;;;5038194;28;20785;-76
2022/03/14 10:30:03;;;;;;;14.20;5.80;;;11.00;99.90;;;;;;5037531;28;20770;-74
2022/03/14 10:32:29;;;;;;;12.67;5.87;;;11.00;99.90;;;;;;5055219;28;20295;-73
2022/03/14 10:34:58;;;;;;;15.80;6.40;;;11.00;99.90;;;;;;5037599;28;20288;-73
2022/03/14 10:37:27;;;;;;;16.90;6.30;;;11.00;99.90;;;;;;5054993;28;20283;-72
2022/03/14 10:40:20;;;;;;;13.90;6.23;;;11.00;99.90;;;;;;5037811;28;20315;-78
2022/03/14 10:42:45;;;;;;;17.37;6.10;;;11.00;99.90;;;;;;5051857;28;20774;-80
2022/03/14 10:45:13;;;;;;;14.60;6.77;;;11.00;99.90;;;;;;5037105;28;20307;-78
2022/03/14 10:47:46;;;;;;;18.87;6.97;;;10.90;99.90;;;;;;5037682;28;20052;-75
2022/03/14 10:50:34;;;;;;;15.17;6.50;;;10.90;99.90;;;;;;5054789;28;20366;-77
2022/03/14 10:53:19;;;;;;;13.83;6.47;;;10.90;99.90;;;;;;5054531;28;20274;-77
2022/03/14 10:55:47;;;;;;;15.15;7.13;;;10.90;99.90;;;;;;5035229;28;20303;-77
2022/03/14 10:58:15;;;;;;;13.77;7.00;;;10.90;99.90;;;;;;5055018;28;20497;-77
2022/03/14 11:00:54;;;;;;;13.83;6.77;;;10.90;99.90;;;;;;5037418;28;20298;-79
2022/03/14 11:03:32;;;;;;;12.70;6.83;;;11.00;99.90;;;;;;5036686;28;20765;-76
2022/03/14 11:06:03;;;;;;;14.70;7.33;;;10.90;99.90;;;;;;5054841;28;20291;-77
2022/03/14 11:08:29;;;;;;;14.60;6.63;;;10.90;99.90;;;;;;5037142;28;20609;-77
2022/03/14 11:10:57;;;;;;;21.07;8.20;;;11.00;99.90;;;;;;5054628;28;20294;-76
2022/03/14 11:13:24;;;;;;;15.00;7.30;;;11.00;99.90;;;;;;5019749;28;20076;-77
2022/03/14 11:15:50;;;;;;;14.47;7.03;;;11.00;99.90;;;;;;5054682;28;20761;-76
2022/03/14 11:18:19;;;;;;;13.77;7.50;;;11.00;99.90;;;;;;5054295;28;20315;-76
2022/03/14 11:20:46;;;;;;;24.20;9.93;;;11.10;99.90;;;;;;5054508;28;20280;-76
2022/03/14 11:23:14;;;;;;;16.83;8.13;;;11.10;99.90;;;;;;5054201;28;20322;-77
2022/03/14 11:25:45;;;;;;;15.07;7.57;;;11.10;99.90;;;;;;5054456;28;20314;-76
2022/03/14 11:28:15;;;;;;;16.73;8.97;;;11.10;99.90;;;;;;5054409;28;20329;-77
2022/03/14 11:30:47;;;;;;;14.67;9.23;;;11.10;99.90;;;;;;5054145;28;20271;-76
2022/03/14 11:33:14;;;;;;;18.87;10.33;;;11.20;99.90;;;;;;5054233;28;20329;-77
2022/03/14 11:35:42;;;;;;;25.27;10.93;;;11.20;99.90;;;;;;5036524;28;20376;-77
2022/03/14 11:38:10;;;;;;;20.57;10.40;;;11.20;99.90;;;;;;5020462;28;20616;-76
2022/03/14 11:40:37;;;;;;;21.13;10.87;;;11.30;99.90;;;;;;5036287;28;20360;-77
2022/03/14 11:43:03;;;;;;;21.00;10.60;;;11.40;99.90;;;;;;5036559;28;20283;-76
2022/03/14 11:45:30;;;;;;;19.00;11.20;;;11.30;99.90;;;;;;5035892;28;20283;-77
2022/03/14 11:47:57;;;;;;;20.83;11.33;;;11.40;99.90;;;;;;5054070;28;20284;-76
2022/03/14 11:50:23;;;;;;;20.90;11.80;;;11.40;99.90;;;;;;5053799;28;20280;-76
2022/03/14 11:52:53;;;;;;;19.97;11.83;;;11.50;99.90;;;;;;5019982;28;20849;-77
2022/03/14 11:55:24;;;;;;;16.83;11.00;;;11.50;99.90;;;;;;5053683;28;20060;-77
2022/03/14 11:57:51;;;;;;;21.23;11.20;;;11.60;99.90;;;;;;5054120;28;20287;-76
2022/03/14 12:00:27;;;;;;;21.80;11.40;;;11.60;99.90;;;;;;5019655;28;20287;-77
2022/03/14 12:03:01;;;;;;;21.57;10.93;;;11.70;99.90;;;;;;5053833;28;20284;-77
2022/03/14 12:05:34;;;;;;;18.33;11.65;;;11.70;99.90;;;;;;5035275;28;20271;-77
2022/03/14 12:08:01;;;;;;;18.80;10.43;;;11.80;99.90;;;;;;5035907;28;20061;-77
2022/03/14 12:10:29;;;;;;;19.17;10.43;;;11.90;99.90;;;;;;5053341;28;20280;-77
2022/03/14 12:12:56;;;;;;;22.43;10.17;;;11.90;99.90;;;;;;5035797;28;20755;-77
2022/03/14 12:15:44;;;;;;;24.80;10.63;;;11.90;99.90;;;;;;5053401;28;20362;-79
2022/03/14 12:18:25;;;;;;;20.17;11.30;;;12.00;99.90;;;;;;5019481;28;20371;-79
2022/03/14 12:20:52;;;;;;;21.73;10.60;;;12.10;99.90;;;;;;5036138;28;20365;-79
2022/03/14 12:23:29;;;;;;;21.37;10.97;;;12.00;99.90;;;;;;5035033;28;20791;-80
2022/03/14 12:25:57;;;;;;;20.83;10.90;;;12.10;99.90;;;;;;5054938;28;20280;-75
2022/03/14 12:28:36;;;;;;;18.27;10.87;;;12.10;99.90;;;;;;5053476;28;20332;-79
2022/03/14 12:31:16;;;;;;;22.93;11.10;;;12.20;99.90;;;;;;5035811;28;20284;-78
2022/03/14 12:33:50;;;;;;;23.37;10.70;;;12.20;99.90;;;;;;5035477;28;20288;-76
2022/03/14 12:36:24;;;;;;;20.57;10.13;;;12.20;99.90;;;;;;5053242;28;20283;-78